sensor_id;sensor_type;location;lat;lon;timestamp;P1;durP1;ratioP1;P2;durP2;ratioP2
14975;SDS011;7584;60.468;25.126;2024-01-10T00:01:45;0.93;;;0.60;;
14975;SDS011;7584;60.468;25.126;2024-01-10T00:04:10;0.50;;;0.50;;
14975;SDS011;7584;60.468;25.126;2024-01-10T00:06:35;0.60;;;0.50;;
14975;SDS011;7584;60.468;25.126;2024-01-10T00:09:01;0.40;;;0.40;;
14975;SDS011;7584;60.468;25.126;2024-01-10T00:11:27;1.10;;;0.60;;
14975;SDS011;7584;60.468;25.126;2024-01-10T00:13:52;0.63;;;0.57;;
14975;SDS011;7584;60.468;25.126;2024-01-10T00:16:18;0.70;;;0.50;;
14975;SDS011;7584;60.468;25.126;2024-01-10T00:18:44;1.10;;;0.70;;
14975;SDS011;7584;60.468;25.126;2024-01-10T00:21:12;2.10;;;0.60;;
14975;SDS011;7584;60.468;25.126;2024-01-10T00:23:37;0.60;;;0.50;;
14975;SDS011;7584;60.468;25.126;2024-01-10T00:26:03;0.93;;;0.50;;
14975;SDS011;7584;60.468;25.126;2024-01-10T00:28:28;1.80;;;0.90;;
14975;SDS011;7584;60.468;25.126;2024-01-10T00:30:54;1.27;;;0.70;;
14975;SDS011;7584;60.468;25.126;2024-01-10T00:33:19;1.47;;;0.60;;
14975;SDS011;7584;60.468;25.126;2024-01-10T00:35:44;0.80;;;0.70;;
14975;SDS011;7584;60.468;25.126;2024-01-10T00:38:09;0.90;;;0.77;;
14975;SDS011;7584;60.468;25.126;2024-01-10T00:40:35;1.53;;;0.80;;
14975;SDS011;7584;60.468;25.126;2024-01-10T00:43:01;1.23;;;0.80;;
14975;SDS011;7584;60.468;25.126;2024-01-10T00:45:26;1.20;;;1.10;;
14975;SDS011;7584;60.468;25.126;2024-01-10T00:47:52;1.80;;;1.00;;
14975;SDS011;7584;60.468;25.126;2024-01-10T00:50:17;1.37;;;1.13;;
14975;SDS011;7584;60.468;25.126;2024-01-10T00:52:43;1.90;;;1.30;;
14975;SDS011;7584;60.468;25.126;2024-01-10T00:55:09;1.00;;;0.90;;
14975;SDS011;7584;60.468;25.126;2024-01-10T00:57:34;1.90;;;1.00;;
14975;SDS011;7584;60.468;25.126;2024-01-10T00:59:59;1.40;;;1.00;;
14975;SDS011;7584;60.468;25.126;2024-01-10T01:02:24;3.20;;;1.10;;
14975;SDS011;7584;60.468;25.126;2024-01-10T01:04:50;1.40;;;1.10;;
14975;SDS011;7584;60.468;25.126;2024-01-10T01:07:15;1.30;;;1.20;;
14975;SDS011;7584;60.468;25.126;2024-01-10T01:09:40;1.73;;;1.10;;
14975;SDS011;7584;60.468;25.126;2024-01-10T01:12:06;1.20;;;1.03;;
14975;SDS011;7584;60.468;25.126;2024-01-10T01:14:31;1.93;;;1.03;;
14975;SDS011;7584;60.468;25.126;2024-01-10T01:16:56;4.43;;;1.23;;
14975;SDS011;7584;60.468;25.126;2024-01-10T01:19:21;1.00;;;0.90;;
14975;SDS011;7584;60.468;25.126;2024-01-10T01:21:47;1.97;;;1.40;;
14975;SDS011;7584;60.468;25.126;2024-01-10T01:24:12;1.67;;;1.07;;
14975;SDS011;7584;60.468;25.126;2024-01-10T01:26:37;1.70;;;1.40;;
14975;SDS011;7584;60.468;25.126;2024-01-10T01:29:03;2.60;;;1.20;;
14975;SDS011;7584;60.468;25.126;2024-01-10T01:31:28;1.33;;;1.23;;
14975;SDS011;7584;60.468;25.126;2024-01-10T01:33:53;1.80;;;1.60;;
14975;SDS011;7584;60.468;25.126;2024-01-10T01:36:18;1.90;;;1.40;;
14975;SDS011;7584;60.468;25.126;2024-01-10T01:38:45;2.23;;;1.47;;
14975;SDS011;7584;60.468;25.126;2024-01-10T01:41:10;1.63;;;1.40;;
14975;SDS011;7584;60.468;25.126;2024-01-10T01:43:36;2.63;;;1.23;;
14975;SDS011;7584;60.468;25.126;2024-01-10T01:46:01;2.37;;;1.27;;
14975;SDS011;7584;60.468;25.126;2024-01-10T01:48:27;3.13;;;1.13;;
14975;SDS011;7584;60.468;25.126;2024-01-10T01:50:54;2.57;;;1.30;;
14975;SDS011;7584;60.468;25.126;2024-01-10T01:53:21;4.33;;;1.40;;
14975;SDS011;7584;60.468;25.126;2024-01-10T01:55:46;2.53;;;1.27;;
14975;SDS011;7584;60.468;25.126;2024-01-10T01:58:12;3.73;;;1.20;;
14975;SDS011;7584;60.468;25.126;2024-01-10T02:00:37;2.93;;;1.20;;
14975;SDS011;7584;60.468;25.126;2024-01-10T02:03:03;1.67;;;1.47;;
14975;SDS011;7584;60.468;25.126;2024-01-10T02:05:29;1.63;;;1.23;;
14975;SDS011;7584;60.468;25.126;2024-01-10T02:07:55;3.37;;;1.53;;
14975;SDS011;7584;60.468;25.126;2024-01-10T02:10:20;2.53;;;1.40;;
14975;SDS011;7584;60.468;25.126;2024-01-10T02:12:45;4.00;;;1.57;;
14975;SDS011;7584;60.468;25.126;2024-01-10T02:15:11;3.63;;;1.40;;
14975;SDS011;7584;60.468;25.126;2024-01-10T02:17:37;1.93;;;1.40;;
14975;SDS011;7584;60.468;25.126;2024-01-10T02:20:11;1.97;;;1.47;;
14975;SDS011;7584;60.468;25.126;2024-01-10T02:22:37;3.50;;;1.77;;
14975;SDS011;7584;60.468;25.126;2024-01-10T02:25:04;3.70;;;2.00;;
14975;SDS011;7584;60.468;25.126;2024-01-10T02:27:30;2.90;;;1.73;;
14975;SDS011;7584;60.468;25.126;2024-01-10T02:29:55;3.70;;;1.63;;
14975;SDS011;7584;60.468;25.126;2024-01-10T02:32:21;5.63;;;2.23;;
14975;SDS011;7584;60.468;25.126;2024-01-10T02:34:47;7.33;;;2.10;;
14975;SDS011;7584;60.468;25.126;2024-01-10T02:37:12;4.10;;;2.20;;
14975;SDS011;7584;60.468;25.126;2024-01-10T02:39:37;5.37;;;2.40;;
14975;SDS011;7584;60.468;25.126;2024-01-10T02:42:03;4.23;;;2.50;;
14975;SDS011;7584;60.468;25.126;2024-01-10T02:44:28;16.43;;;2.93;;
14975;SDS011;7584;60.468;25.126;2024-01-10T02:46:53;3.00;;;2.10;;
14975;SDS011;7584;60.468;25.126;2024-01-10T02:49:19;12.57;;;2.53;;
14975;SDS011;7584;60.468;25.126;2024-01-10T02:51:44;6.07;;;2.27;;
14975;SDS011;7584;60.468;25.126;2024-01-10T02:54:09;6.83;;;2.30;;
14975;SDS011;7584;60.468;25.126;2024-01-10T02:56:35;3.93;;;1.80;;
14975;SDS011;7584;60.468;25.126;2024-01-10T02:59:00;3.17;;;1.90;;
14975;SDS011;7584;60.468;25.126;2024-01-10T03:01:25;4.40;;;1.97;;
14975;SDS011;7584;60.468;25.126;2024-01-10T03:03:51;9.63;;;2.20;;
14975;SDS011;7584;60.468;25.126;2024-01-10T03:06:16;5.73;;;2.03;;
14975;SDS011;7584;60.468;25.126;2024-01-10T03:08:41;3.93;;;1.70;;
14975;SDS011;7584;60.468;25.126;2024-01-10T03:11:06;3.80;;;1.87;;
14975;SDS011;7584;60.468;25.126;2024-01-10T03:13:32;7.57;;;2.20;;
14975;SDS011;7584;60.468;25.126;2024-01-10T03:15:57;5.80;;;1.70;;
14975;SDS011;7584;60.468;25.126;2024-01-10T03:18:23;3.37;;;1.40;;
14975;SDS011;7584;60.468;25.126;2024-01-10T03:20:49;5.03;;;1.60;;
14975;SDS011;7584;60.468;25.126;2024-01-10T03:23:14;6.53;;;1.90;;
14975;SDS011;7584;60.468;25.126;2024-01-10T03:25:39;4.80;;;1.70;;
14975;SDS011;7584;60.468;25.126;2024-01-10T03:28:05;4.63;;;2.30;;
14975;SDS011;7584;60.468;25.126;2024-01-10T03:30:30;9.57;;;2.13;;
14975;SDS011;7584;60.468;25.126;2024-01-10T03:32:55;6.87;;;1.73;;
14975;SDS011;7584;60.468;25.126;2024-01-10T03:35:21;10.13;;;1.80;;
14975;SDS011;7584;60.468;25.126;2024-01-10T03:37:46;5.30;;;1.50;;
14975;SDS011;7584;60.468;25.126;2024-01-10T03:40:11;11.43;;;1.60;;
14975;SDS011;7584;60.468;25.126;2024-01-10T03:42:37;7.83;;;1.57;;
14975;SDS011;7584;60.468;25.126;2024-01-10T03:45:02;13.53;;;2.00;;
14975;SDS011;7584;60.468;25.126;2024-01-10T03:47:28;12.97;;;2.20;;
14975;SDS011;7584;60.468;25.126;2024-01-10T03:49:53;10.50;;;1.93;;
14975;SDS011;7584;60.468;25.126;2024-01-10T03:52:18;9.73;;;2.00;;
14975;SDS011;7584;60.468;25.126;2024-01-10T03:54:44;8.17;;;2.00;;
14975;SDS011;7584;60.468;25.126;2024-01-10T03:57:09;8.97;;;1.73;;
14975;SDS011;7584;60.468;25.126;2024-01-10T03:59:34;15.70;;;2.33;;
14975;SDS011;7584;60.468;25.126;2024-01-10T04:02:00;13.53;;;1.90;;
14975;SDS011;7584;60.468;25.126;2024-01-10T04:04:25;13.00;;;1.83;;
14975;SDS011;7584;60.468;25.126;2024-01-10T04:06:51;6.27;;;1.70;;
14975;SDS011;7584;60.468;25.126;2024-01-10T04:09:17;3.50;;;1.63;;
14975;SDS011;7584;60.468;25.126;2024-01-10T04:11:42;13.57;;;1.83;;
14975;SDS011;7584;60.468;25.126;2024-01-10T04:14:07;10.40;;;1.50;;
14975;SDS011;7584;60.468;25.126;2024-01-10T04:16:32;7.07;;;1.80;;
14975;SDS011;7584;60.468;25.126;2024-01-10T04:18:58;2.20;;;1.37;;
14975;SDS011;7584;60.468;25.126;2024-01-10T04:21:23;3.03;;;1.37;;
14975;SDS011;7584;60.468;25.126;2024-01-10T04:23:49;6.87;;;1.43;;
14975;SDS011;7584;60.468;25.126;2024-01-10T04:26:14;7.20;;;1.93;;
14975;SDS011;7584;60.468;25.126;2024-01-10T04:28:39;2.57;;;1.43;;
14975;SDS011;7584;60.468;25.126;2024-01-10T04:31:06;5.00;;;1.57;;
14975;SDS011;7584;60.468;25.126;2024-01-10T04:33:31;3.77;;;1.30;;
14975;SDS011;7584;60.468;25.126;2024-01-10T04:35:56;7.47;;;1.70;;
14975;SDS011;7584;60.468;25.126;2024-01-10T04:38:22;8.20;;;1.30;;
14975;SDS011;7584;60.468;25.126;2024-01-10T04:40:51;4.80;;;1.63;;
14975;SDS011;7584;60.468;25.126;2024-01-10T04:43:16;2.53;;;1.43;;
14975;SDS011;7584;60.468;25.126;2024-01-10T04:45:41;3.77;;;1.50;;
14975;SDS011;7584;60.468;25.126;2024-01-10T04:48:07;5.53;;;1.50;;
14975;SDS011;7584;60.468;25.126;2024-01-10T04:50:32;5.77;;;1.57;;
14975;SDS011;7584;60.468;25.126;2024-01-10T04:52:57;2.17;;;1.63;;
14975;SDS011;7584;60.468;25.126;2024-01-10T04:55:22;5.03;;;1.60;;
14975;SDS011;7584;60.468;25.126;2024-01-10T04:57:48;5.73;;;1.53;;
14975;SDS011;7584;60.468;25.126;2024-01-10T05:00:13;6.57;;;1.70;;
14975;SDS011;7584;60.468;25.126;2024-01-10T05:02:38;6.80;;;1.70;;
14975;SDS011;7584;60.468;25.126;2024-01-10T05:05:04;7.10;;;1.80;;
14975;SDS011;7584;60.468;25.126;2024-01-10T05:07:29;5.70;;;1.40;;
14975;SDS011;7584;60.468;25.126;2024-01-10T05:09:55;9.07;;;1.47;;
14975;SDS011;7584;60.468;25.126;2024-01-10T05:12:20;4.10;;;1.70;;
14975;SDS011;7584;60.468;25.126;2024-01-10T05:14:45;8.60;;;2.00;;
14975;SDS011;7584;60.468;25.126;2024-01-10T05:17:11;5.33;;;1.90;;
14975;SDS011;7584;60.468;25.126;2024-01-10T05:19:36;4.10;;;1.90;;
14975;SDS011;7584;60.468;25.126;2024-01-10T05:22:01;4.53;;;2.07;;
14975;SDS011;7584;60.468;25.126;2024-01-10T05:24:27;4.10;;;2.10;;
14975;SDS011;7584;60.468;25.126;2024-01-10T05:26:52;10.07;;;1.90;;
14975;SDS011;7584;60.468;25.126;2024-01-10T05:29:18;7.13;;;2.30;;
14975;SDS011;7584;60.468;25.126;2024-01-10T05:31:44;4.93;;;1.80;;
14975;SDS011;7584;60.468;25.126;2024-01-10T05:34:11;3.83;;;1.97;;
14975;SDS011;7584;60.468;25.126;2024-01-10T05:36:36;5.13;;;1.63;;
14975;SDS011;7584;60.468;25.126;2024-01-10T05:39:02;3.87;;;1.53;;
14975;SDS011;7584;60.468;25.126;2024-01-10T05:41:27;5.70;;;1.70;;
14975;SDS011;7584;60.468;25.126;2024-01-10T05:43:52;8.00;;;1.70;;
14975;SDS011;7584;60.468;25.126;2024-01-10T05:46:17;5.73;;;1.93;;
14975;SDS011;7584;60.468;25.126;2024-01-10T05:48:44;8.87;;;2.40;;
14975;SDS011;7584;60.468;25.126;2024-01-10T05:51:11;5.83;;;2.27;;
14975;SDS011;7584;60.468;25.126;2024-01-10T05:53:37;4.43;;;1.60;;
14975;SDS011;7584;60.468;25.126;2024-01-10T05:56:02;11.13;;;2.00;;
14975;SDS011;7584;60.468;25.126;2024-01-10T05:58:28;6.37;;;2.20;;
14975;SDS011;7584;60.468;25.126;2024-01-10T06:00:53;10.03;;;2.27;;
14975;SDS011;7584;60.468;25.126;2024-01-10T06:03:20;5.60;;;2.03;;
14975;SDS011;7584;60.468;25.126;2024-01-10T06:05:45;13.60;;;4.40;;
14975;SDS011;7584;60.468;25.126;2024-01-10T06:08:10;56.77;;;50.90;;
14975;SDS011;7584;60.468;25.126;2024-01-10T06:10:36;25.47;;;22.67;;
14975;SDS011;7584;60.468;25.126;2024-01-10T06:13:01;11.33;;;4.97;;
14975;SDS011;7584;60.468;25.126;2024-01-10T06:15:26;18.03;;;15.47;;
14975;SDS011;7584;60.468;25.126;2024-01-10T06:17:51;13.33;;;3.60;;
14975;SDS011;7584;60.468;25.126;2024-01-10T06:20:17;12.97;;;3.20;;
14975;SDS011;7584;60.468;25.126;2024-01-10T06:22:43;10.73;;;2.63;;
14975;SDS011;7584;60.468;25.126;2024-01-10T06:25:08;7.00;;;2.10;;
14975;SDS011;7584;60.468;25.126;2024-01-10T06:27:34;4.43;;;2.40;;
14975;SDS011;7584;60.468;25.126;2024-01-10T06:29:59;11.23;;;2.40;;
14975;SDS011;7584;60.468;25.126;2024-01-10T06:32:24;16.87;;;2.87;;
14975;SDS011;7584;60.468;25.126;2024-01-10T06:34:50;6.60;;;2.60;;
14975;SDS011;7584;60.468;25.126;2024-01-10T06:37:16;3.93;;;1.87;;
14975;SDS011;7584;60.468;25.126;2024-01-10T06:39:41;9.60;;;2.27;;
14975;SDS011;7584;60.468;25.126;2024-01-10T06:42:06;6.30;;;2.20;;
14975;SDS011;7584;60.468;25.126;2024-01-10T06:44:33;6.63;;;2.20;;
14975;SDS011;7584;60.468;25.126;2024-01-10T06:46:58;4.70;;;2.07;;
14975;SDS011;7584;60.468;25.126;2024-01-10T06:49:24;2.57;;;1.80;;
14975;SDS011;7584;60.468;25.126;2024-01-10T06:51:49;4.97;;;2.20;;
14975;SDS011;7584;60.468;25.126;2024-01-10T06:54:14;3.57;;;1.97;;
14975;SDS011;7584;60.468;25.126;2024-01-10T06:56:40;9.10;;;2.40;;
14975;SDS011;7584;60.468;25.126;2024-01-10T06:59:06;8.47;;;1.60;;
14975;SDS011;7584;60.468;25.126;2024-01-10T07:01:31;7.53;;;1.90;;
14975;SDS011;7584;60.468;25.126;2024-01-10T07:03:57;5.17;;;1.80;;
14975;SDS011;7584;60.468;25.126;2024-01-10T07:06:22;4.53;;;1.90;;
14975;SDS011;7584;60.468;25.126;2024-01-10T07:08:48;5.73;;;2.00;;
14975;SDS011;7584;60.468;25.126;2024-01-10T07:11:14;4.90;;;1.50;;
14975;SDS011;7584;60.468;25.126;2024-01-10T07:13:40;4.83;;;1.60;;
14975;SDS011;7584;60.468;25.126;2024-01-10T07:16:05;8.97;;;1.90;;
14975;SDS011;7584;60.468;25.126;2024-01-10T07:18:31;7.90;;;1.40;;
14975;SDS011;7584;60.468;25.126;2024-01-10T07:20:56;4.63;;;1.73;;
14975;SDS011;7584;60.468;25.126;2024-01-10T07:23:21;8.13;;;2.20;;
14975;SDS011;7584;60.468;25.126;2024-01-10T07:25:48;12.27;;;2.00;;
14975;SDS011;7584;60.468;25.126;2024-01-10T07:28:13;10.57;;;2.13;;
14975;SDS011;7584;60.468;25.126;2024-01-10T07:30:38;11.57;;;2.30;;
14975;SDS011;7584;60.468;25.126;2024-01-10T07:33:04;10.60;;;2.30;;
14975;SDS011;7584;60.468;25.126;2024-01-10T07:35:29;10.33;;;2.00;;
14975;SDS011;7584;60.468;25.126;2024-01-10T07:37:55;5.73;;;1.70;;
14975;SDS011;7584;60.468;25.126;2024-01-10T07:40:20;10.87;;;2.20;;
14975;SDS011;7584;60.468;25.126;2024-01-10T07:42:47;4.83;;;2.23;;
14975;SDS011;7584;60.468;25.126;2024-01-10T07:45:13;6.33;;;1.80;;
14975;SDS011;7584;60.468;25.126;2024-01-10T07:47:38;12.10;;;2.40;;
14975;SDS011;7584;60.468;25.126;2024-01-10T07:50:07;5.80;;;2.10;;
14975;SDS011;7584;60.468;25.126;2024-01-10T07:52:32;3.77;;;1.87;;
14975;SDS011;7584;60.468;25.126;2024-01-10T07:54:58;7.20;;;2.30;;
14975;SDS011;7584;60.468;25.126;2024-01-10T07:57:23;6.10;;;2.37;;
14975;SDS011;7584;60.468;25.126;2024-01-10T07:59:48;3.90;;;2.20;;
14975;SDS011;7584;60.468;25.126;2024-01-10T08:02:13;7.03;;;2.57;;
14975;SDS011;7584;60.468;25.126;2024-01-10T08:04:39;4.60;;;2.00;;
14975;SDS011;7584;60.468;25.126;2024-01-10T08:07:04;2.80;;;1.73;;
14975;SDS011;7584;60.468;25.126;2024-01-10T08:09:29;3.37;;;2.27;;
14975;SDS011;7584;60.468;25.126;2024-01-10T08:11:54;2.90;;;2.00;;
14975;SDS011;7584;60.468;25.126;2024-01-10T08:14:20;3.50;;;2.10;;
14975;SDS011;7584;60.468;25.126;2024-01-10T08:16:45;3.27;;;2.40;;
14975;SDS011;7584;60.468;25.126;2024-01-10T08:19:10;2.60;;;2.00;;
14975;SDS011;7584;60.468;25.126;2024-01-10T08:21:36;3.27;;;2.47;;
14975;SDS011;7584;60.468;25.126;2024-01-10T08:24:02;3.47;;;2.30;;
14975;SDS011;7584;60.468;25.126;2024-01-10T08:26:27;2.10;;;1.80;;
14975;SDS011;7584;60.468;25.126;2024-01-10T08:28:53;3.13;;;2.07;;
14975;SDS011;7584;60.468;25.126;2024-01-10T08:31:18;4.57;;;1.90;;
14975;SDS011;7584;60.468;25.126;2024-01-10T08:33:43;2.10;;;1.73;;
14975;SDS011;7584;60.468;25.126;2024-01-10T08:36:10;3.53;;;1.97;;
14975;SDS011;7584;60.468;25.126;2024-01-10T08:38:35;2.20;;;1.70;;
14975;SDS011;7584;60.468;25.126;2024-01-10T08:41:01;2.63;;;1.80;;
14975;SDS011;7584;60.468;25.126;2024-01-10T08:43:26;1.83;;;1.60;;
14975;SDS011;7584;60.468;25.126;2024-01-10T08:45:51;1.70;;;1.50;;
14975;SDS011;7584;60.468;25.126;2024-01-10T08:48:17;2.10;;;1.27;;
14975;SDS011;7584;60.468;25.126;2024-01-10T08:50:42;1.60;;;1.50;;
14975;SDS011;7584;60.468;25.126;2024-01-10T08:53:09;1.50;;;1.30;;
14975;SDS011;7584;60.468;25.126;2024-01-10T08:55:35;1.70;;;1.40;;
14975;SDS011;7584;60.468;25.126;2024-01-10T08:58:02;1.93;;;1.47;;
14975;SDS011;7584;60.468;25.126;2024-01-10T09:00:27;1.40;;;1.10;;
14975;SDS011;7584;60.468;25.126;2024-01-10T09:02:53;1.60;;;1.33;;
14975;SDS011;7584;60.468;25.126;2024-01-10T09:05:18;2.00;;;1.53;;
14975;SDS011;7584;60.468;25.126;2024-01-10T09:07:44;1.40;;;1.30;;
14975;SDS011;7584;60.468;25.126;2024-01-10T09:10:09;1.50;;;1.37;;
14975;SDS011;7584;60.468;25.126;2024-01-10T09:12:34;1.73;;;1.50;;
14975;SDS011;7584;60.468;25.126;2024-01-10T09:15:00;2.73;;;1.53;;
14975;SDS011;7584;60.468;25.126;2024-01-10T09:17:26;1.27;;;1.17;;
14975;SDS011;7584;60.468;25.126;2024-01-10T09:19:51;1.40;;;1.20;;
14975;SDS011;7584;60.468;25.126;2024-01-10T09:22:16;1.57;;;1.40;;
14975;SDS011;7584;60.468;25.126;2024-01-10T09:24:41;1.53;;;1.10;;
14975;SDS011;7584;60.468;25.126;2024-01-10T09:27:07;2.53;;;1.47;;
14975;SDS011;7584;60.468;25.126;2024-01-10T09:29:32;1.83;;;1.30;;
14975;SDS011;7584;60.468;25.126;2024-01-10T09:31:58;2.93;;;1.70;;
14975;SDS011;7584;60.468;25.126;2024-01-10T09:34:23;2.20;;;1.57;;
14975;SDS011;7584;60.468;25.126;2024-01-10T09:36:48;2.10;;;1.70;;
14975;SDS011;7584;60.468;25.126;2024-01-10T09:39:13;1.63;;;1.33;;
14975;SDS011;7584;60.468;25.126;2024-01-10T09:41:40;1.90;;;1.70;;
14975;SDS011;7584;60.468;25.126;2024-01-10T09:44:08;2.83;;;1.60;;
14975;SDS011;7584;60.468;25.126;2024-01-10T09:46:34;2.27;;;1.60;;
14975;SDS011;7584;60.468;25.126;2024-01-10T09:49:03;2.13;;;1.80;;
14975;SDS011;7584;60.468;25.126;2024-01-10T09:51:29;2.50;;;1.97;;
14975;SDS011;7584;60.468;25.126;2024-01-10T09:53:54;2.70;;;2.00;;
14975;SDS011;7584;60.468;25.126;2024-01-10T09:56:21;2.90;;;2.10;;
14975;SDS011;7584;60.468;25.126;2024-01-10T09:58:46;2.73;;;2.00;;
14975;SDS011;7584;60.468;25.126;2024-01-10T10:01:13;2.20;;;1.97;;
14975;SDS011;7584;60.468;25.126;2024-01-10T10:03:39;3.10;;;2.10;;
14975;SDS011;7584;60.468;25.126;2024-01-10T10:06:07;3.77;;;1.90;;
14975;SDS011;7584;60.468;25.126;2024-01-10T10:08:32;4.17;;;2.27;;
14975;SDS011;7584;60.468;25.126;2024-01-10T10:10:58;2.67;;;1.73;;
14975;SDS011;7584;60.468;25.126;2024-01-10T10:13:24;2.33;;;1.73;;
14975;SDS011;7584;60.468;25.126;2024-01-10T10:15:57;1.97;;;1.30;;
14975;SDS011;7584;60.468;25.126;2024-01-10T10:18:23;2.20;;;1.70;;
14975;SDS011;7584;60.468;25.126;2024-01-10T10:20:48;2.93;;;1.47;;
14975;SDS011;7584;60.468;25.126;2024-01-10T10:23:13;1.87;;;1.20;;
14975;SDS011;7584;60.468;25.126;2024-01-10T10:25:42;2.27;;;1.20;;
14975;SDS011;7584;60.468;25.126;2024-01-10T10:28:07;2.27;;;1.30;;
14975;SDS011;7584;60.468;25.126;2024-01-10T10:30:33;1.37;;;1.07;;
14975;SDS011;7584;60.468;25.126;2024-01-10T10:32:58;1.63;;;1.30;;
14975;SDS011;7584;60.468;25.126;2024-01-10T10:35:24;3.83;;;1.10;;
14975;SDS011;7584;60.468;25.126;2024-01-10T10:37:50;1.23;;;1.13;;
14975;SDS011;7584;60.468;25.126;2024-01-10T10:40:15;0.97;;;0.87;;
14975;SDS011;7584;60.468;25.126;2024-01-10T10:42:43;1.47;;;1.10;;
14975;SDS011;7584;60.468;25.126;2024-01-10T10:45:09;1.20;;;1.10;;
14975;SDS011;7584;60.468;25.126;2024-01-10T10:47:37;0.93;;;0.83;;
14975;SDS011;7584;60.468;25.126;2024-01-10T10:50:08;1.83;;;1.10;;
14975;SDS011;7584;60.468;25.126;2024-01-10T10:52:35;1.10;;;1.00;;
14975;SDS011;7584;60.468;25.126;2024-01-10T10:55:01;2.57;;;0.97;;
14975;SDS011;7584;60.468;25.126;2024-01-10T10:57:27;1.23;;;0.97;;
14975;SDS011;7584;60.468;25.126;2024-01-10T10:59:53;1.33;;;1.20;;
14975;SDS011;7584;60.468;25.126;2024-01-10T11:02:20;1.80;;;1.00;;
14975;SDS011;7584;60.468;25.126;2024-01-10T11:04:45;1.00;;;0.90;;
14975;SDS011;7584;60.468;25.126;2024-01-10T11:07:11;1.27;;;0.90;;
14975;SDS011;7584;60.468;25.126;2024-01-10T11:09:36;1.10;;;0.70;;
14975;SDS011;7584;60.468;25.126;2024-01-10T11:12:25;0.80;;;0.80;;
14975;SDS011;7584;60.468;25.126;2024-01-10T11:17:43;1.00;;;0.90;;
14975;SDS011;7584;60.468;25.126;2024-01-10T11:20:30;2.27;;;0.87;;
14975;SDS011;7584;60.468;25.126;2024-01-10T11:25:41;1.10;;;0.80;;
14975;SDS011;7584;60.468;25.126;2024-01-10T11:28:07;1.30;;;0.80;;
14975;SDS011;7584;60.468;25.126;2024-01-10T11:30:36;1.10;;;0.80;;
14975;SDS011;7584;60.468;25.126;2024-01-10T11:33:24;0.83;;;0.63;;
14975;SDS011;7584;60.468;25.126;2024-01-10T11:36:30;0.70;;;0.70;;
14975;SDS011;7584;60.468;25.126;2024-01-10T11:41:11;0.57;;;0.57;;
14975;SDS011;7584;60.468;25.126;2024-01-10T11:43:37;2.53;;;0.70;;
14975;SDS011;7584;60.468;25.126;2024-01-10T11:46:02;0.97;;;0.60;;
14975;SDS011;7584;60.468;25.126;2024-01-10T11:48:31;1.07;;;0.70;;
14975;SDS011;7584;60.468;25.126;2024-01-10T11:50:57;0.50;;;0.50;;
14975;SDS011;7584;60.468;25.126;2024-01-10T11:53:38;1.00;;;0.60;;
14975;SDS011;7584;60.468;25.126;2024-01-10T11:56:10;1.07;;;0.60;;
14975;SDS011;7584;60.468;25.126;2024-01-10T11:59:02;1.43;;;0.60;;
14975;SDS011;7584;60.468;25.126;2024-01-10T12:01:30;2.13;;;0.67;;
14975;SDS011;7584;60.468;25.126;2024-01-10T12:03:56;0.80;;;0.50;;
14975;SDS011;7584;60.468;25.126;2024-01-10T12:06:22;1.07;;;0.53;;
14975;SDS011;7584;60.468;25.126;2024-01-10T12:08:48;1.33;;;0.67;;
14975;SDS011;7584;60.468;25.126;2024-01-10T12:11:14;2.40;;;0.50;;
14975;SDS011;7584;60.468;25.126;2024-01-10T12:13:40;0.57;;;0.50;;
14975;SDS011;7584;60.468;25.126;2024-01-10T12:16:06;0.70;;;0.50;;
14975;SDS011;7584;60.468;25.126;2024-01-10T12:18:31;0.80;;;0.50;;
14975;SDS011;7584;60.468;25.126;2024-01-10T12:20:56;1.10;;;0.50;;
14975;SDS011;7584;60.468;25.126;2024-01-10T12:23:22;1.33;;;0.50;;
14975;SDS011;7584;60.468;25.126;2024-01-10T12:25:50;1.27;;;0.57;;
14975;SDS011;7584;60.468;25.126;2024-01-10T12:28:16;1.10;;;0.40;;
14975;SDS011;7584;60.468;25.126;2024-01-10T12:30:41;1.00;;;0.60;;
14975;SDS011;7584;60.468;25.126;2024-01-10T12:33:08;0.67;;;0.50;;
14975;SDS011;7584;60.468;25.126;2024-01-10T12:35:33;0.70;;;0.43;;
14975;SDS011;7584;60.468;25.126;2024-01-10T12:37:59;0.90;;;0.60;;
14975;SDS011;7584;60.468;25.126;2024-01-10T12:40:24;0.60;;;0.47;;
14975;SDS011;7584;60.468;25.126;2024-01-10T12:43:01;1.47;;;0.60;;
14975;SDS011;7584;60.468;25.126;2024-01-10T12:45:26;0.97;;;0.60;;
14975;SDS011;7584;60.468;25.126;2024-01-10T12:47:53;0.97;;;0.40;;
14975;SDS011;7584;60.468;25.126;2024-01-10T12:50:18;0.70;;;0.50;;
14975;SDS011;7584;60.468;25.126;2024-01-10T12:52:44;1.10;;;0.47;;
14975;SDS011;7584;60.468;25.126;2024-01-10T12:55:09;0.70;;;0.40;;
14975;SDS011;7584;60.468;25.126;2024-01-10T12:57:35;0.40;;;0.40;;
14975;SDS011;7584;60.468;25.126;2024-01-10T13:00:00;0.77;;;0.40;;
14975;SDS011;7584;60.468;25.126;2024-01-10T13:02:25;1.43;;;0.40;;
14975;SDS011;7584;60.468;25.126;2024-01-10T13:04:51;0.97;;;0.50;;
14975;SDS011;7584;60.468;25.126;2024-01-10T13:07:17;0.50;;;0.30;;
14975;SDS011;7584;60.468;25.126;2024-01-10T13:09:42;1.70;;;0.50;;
14975;SDS011;7584;60.468;25.126;2024-01-10T13:12:07;0.83;;;0.50;;
14975;SDS011;7584;60.468;25.126;2024-01-10T13:14:33;0.50;;;0.50;;
14975;SDS011;7584;60.468;25.126;2024-01-10T13:16:59;0.50;;;0.40;;
14975;SDS011;7584;60.468;25.126;2024-01-10T13:19:24;0.50;;;0.40;;
14975;SDS011;7584;60.468;25.126;2024-01-10T13:21:49;1.70;;;0.40;;
14975;SDS011;7584;60.468;25.126;2024-01-10T13:24:15;1.17;;;0.70;;
14975;SDS011;7584;60.468;25.126;2024-01-10T13:26:40;1.03;;;0.40;;
14975;SDS011;7584;60.468;25.126;2024-01-10T13:29:05;0.93;;;0.70;;
14975;SDS011;7584;60.468;25.126;2024-01-10T13:31:30;1.10;;;0.70;;
14975;SDS011;7584;60.468;25.126;2024-01-10T13:33:56;0.60;;;0.40;;
14975;SDS011;7584;60.468;25.126;2024-01-10T13:36:21;0.60;;;0.40;;
14975;SDS011;7584;60.468;25.126;2024-01-10T13:38:46;0.60;;;0.50;;
14975;SDS011;7584;60.468;25.126;2024-01-10T13:41:12;0.50;;;0.40;;
14975;SDS011;7584;60.468;25.126;2024-01-10T13:43:37;0.93;;;0.50;;
14975;SDS011;7584;60.468;25.126;2024-01-10T13:46:05;1.47;;;0.40;;
14975;SDS011;7584;60.468;25.126;2024-01-10T13:48:30;0.90;;;0.53;;
14975;SDS011;7584;60.468;25.126;2024-01-10T13:50:55;1.90;;;0.40;;
14975;SDS011;7584;60.468;25.126;2024-01-10T13:53:20;1.37;;;0.47;;
14975;SDS011;7584;60.468;25.126;2024-01-10T13:55:47;0.40;;;0.40;;
14975;SDS011;7584;60.468;25.126;2024-01-10T13:58:12;0.70;;;0.50;;
14975;SDS011;7584;60.468;25.126;2024-01-10T14:00:37;0.40;;;0.40;;
14975;SDS011;7584;60.468;25.126;2024-01-10T14:03:03;0.20;;;0.20;;
14975;SDS011;7584;60.468;25.126;2024-01-10T14:05:28;0.93;;;0.43;;
14975;SDS011;7584;60.468;25.126;2024-01-10T14:07:54;1.73;;;0.30;;
14975;SDS011;7584;60.468;25.126;2024-01-10T14:10:20;0.50;;;0.40;;
14975;SDS011;7584;60.468;25.126;2024-01-10T14:12:45;1.40;;;0.30;;
14975;SDS011;7584;60.468;25.126;2024-01-10T14:15:11;0.30;;;0.30;;
14975;SDS011;7584;60.468;25.126;2024-01-10T14:17:36;3.07;;;0.30;;
14975;SDS011;7584;60.468;25.126;2024-01-10T14:20:01;0.67;;;0.33;;
14975;SDS011;7584;60.468;25.126;2024-01-10T14:22:27;1.43;;;0.20;;
14975;SDS011;7584;60.468;25.126;2024-01-10T14:24:53;0.20;;;0.20;;
14975;SDS011;7584;60.468;25.126;2024-01-10T14:27:21;1.90;;;0.50;;
14975;SDS011;7584;60.468;25.126;2024-01-10T14:29:47;0.87;;;0.40;;
14975;SDS011;7584;60.468;25.126;2024-01-10T14:32:13;0.70;;;0.47;;
14975;SDS011;7584;60.468;25.126;2024-01-10T14:34:41;0.83;;;0.40;;
14975;SDS011;7584;60.468;25.126;2024-01-10T14:37:07;0.80;;;0.40;;
14975;SDS011;7584;60.468;25.126;2024-01-10T14:39:33;0.47;;;0.30;;
14975;SDS011;7584;60.468;25.126;2024-01-10T14:41:58;0.50;;;0.50;;
14975;SDS011;7584;60.468;25.126;2024-01-10T14:44:23;0.87;;;0.40;;
14975;SDS011;7584;60.468;25.126;2024-01-10T14:46:49;1.63;;;0.40;;